Time;durP1;ratioP1;P1;durP2;ratioP2;P2;SDS_P1;SDS_P2;PMS_P1;PMS_P2;Temp;Humidity;BMP_temperature;BMP_pressure;BME280_temperature;BME280_humidity;BME280_pressure;Samples;Min_cycle;Max_cycle;Signal;HPM_P1;HPM_P2
2024/02/01 05:44:33;;;;;;;56.30;26.60;;;;;;;-1.37;100.00;100813.15;110201;1279;22274;-52
2024/02/01 05:47:05;;;;;;;52.50;27.60;;;;;;;-1.37;100.00;100817.08;109851;1273;22371;-46
2024/02/01 05:49:34;;;;;;;64.00;34.30;;;;;;;-1.38;100.00;100812.19;110035;1273;22398;-46
2024/02/01 05:52:04;;;;;;;71.90;36.30;;;;;;;-1.41;100.00;100816.00;110010;1264;22383;-46
2024/02/01 05:54:34;;;;;;;65.00;36.30;;;;;;;-1.45;100.00;100819.70;109995;1262;22472;-53
2024/02/01 05:57:05;;;;;;;79.30;39.00;;;;;;;-1.47;100.00;100836.52;110064;1272;23135;-52
2024/02/01 05:59:33;;;;;;;72.60;36.00;;;;;;;-1.42;100.00;100831.83;110053;1272;22501;-52
2024/02/01 06:02:03;;;;;;;64.40;34.20;;;;;;;-1.35;100.00;100823.35;110029;1275;22246;-53
2024/02/01 06:04:31;;;;;;;66.60;36.10;;;;;;;-1.29;100.00;100817.14;109985;1272;22461;-53
2024/02/01 06:06:58;;;;;;;73.90;36.20;;;;;;;-1.23;100.00;100816.64;110016;1272;22403;-53
2024/02/01 06:09:26;;;;;;;69.00;35.00;;;;;;;-1.14;100.00;100814.44;109990;1274;22281;-47
2024/02/01 06:11:53;;;;;;;65.70;32.60;;;;;;;-1.05;100.00;100804.46;109908;1275;22348;-47
2024/02/01 06:14:21;;;;;;;57.30;32.10;;;;;;;-1.01;100.00;100801.40;110002;1279;22863;-47
2024/02/01 06:16:49;;;;;;;70.50;35.70;;;;;;;-0.96;100.00;100803.39;109983;1274;22760;-47
2024/02/01 06:19:17;;;;;;;56.80;31.50;;;;;;;-0.90;100.00;100800.83;109929;1279;22876;-47
2024/02/01 06:21:45;;;;;;;52.20;30.00;;;;;;;-0.82;100.00;100796.59;109936;1273;22417;-52
2024/02/01 06:24:12;;;;;;;48.60;29.30;;;;;;;-0.76;100.00;100791.63;109681;1274;22243;-51
2024/02/01 06:26:41;;;;;;;47.80;27.10;;;;;;;-0.66;100.00;100792.13;109625;1272;22739;-47
2024/02/01 06:29:21;;;;;;;47.40;27.50;;;;;;;-0.57;100.00;100787.30;109559;1273;22900;-51
2024/02/01 06:32:19;;;;;;;47.80;27.40;;;;;;;-0.51;100.00;100781.25;109661;1273;22324;-47
2024/02/01 06:34:57;;;;;;;56.00;29.00;;;;;;;-0.48;100.00;100778.50;109362;1275;23003;-47
2024/02/01 06:37:42;;;;;;;46.50;26.90;;;;;;;-0.43;100.00;100778.64;109760;1276;23106;-46
2024/02/01 06:41:27;;;;;;;46.40;26.30;;;;;;;-0.34;100.00;100773.08;109759;1272;22516;-46
2024/02/01 06:44:25;;;;;;;57.90;30.90;;;;;;;-0.23;100.00;100768.34;109585;1272;23362;-48
2024/02/01 06:47:11;;;;;;;39.90;24.70;;;;;;;-0.13;100.00;100764.35;109816;1278;22735;-47
2024/02/01 06:50:15;;;;;;;46.90;26.70;;;;;;;-0.08;100.00;100762.90;109879;1273;22933;-52
2024/02/01 06:52:51;;;;;;;46.20;25.40;;;;;;;-0.05;100.00;100767.37;109733;1274;23475;-47
2024/02/01 06:55:36;;;;;;;47.40;27.90;;;;;;;-0.02;100.00;100764.95;109707;1279;22390;-48
2024/02/01 06:58:05;;;;;;;48.70;26.10;;;;;;;0.06;100.00;100764.63;109654;1272;22469;-47
2024/02/01 07:00:50;;;;;;;46.50;25.80;;;;;;;0.13;100.00;100766.19;109884;1272;22428;-53
2024/02/01 07:16:35;;;;;;;49.00;26.90;;;;;;;0.72;100.00;100748.08;109820;1272;22243;-53
2024/02/01 07:19:39;;;;;;;46.40;28.50;;;;;;;0.82;100.00;100743.88;109549;1270;22531;-47
2024/02/01 07:22:22;;;;;;;44.50;26.30;;;;;;;0.87;100.00;100737.95;109402;1273;22492;-54
2024/02/01 07:59:26;;;;;;;46.10;27.90;;;;;;;1.79;100.00;100711.39;110032;1273;23190;-52
2024/02/01 08:02:23;;;;;;;44.40;26.90;;;;;;;1.90;100.00;100702.71;109982;1272;22337;-47
2024/02/01 08:07:48;;;;;;;45.40;27.10;;;;;;;2.06;100.00;100707.87;110006;1273;22288;-47
2024/02/01 08:10:26;;;;;;;40.80;24.80;;;;;;;2.14;100.00;100714.20;109808;1270;22513;-48
2024/02/01 08:13:08;;;;;;;41.00;25.20;;;;;;;2.20;100.00;100712.37;109595;1266;23018;-47
2024/02/01 08:15:44;;;;;;;45.30;25.50;;;;;;;2.28;100.00;100711.15;109518;1270;22377;-48
2024/02/01 08:18:14;;;;;;;43.70;26.00;;;;;;;2.38;100.00;100707.75;109675;1273;23864;-52
2024/02/01 08:21:16;;;;;;;43.10;26.20;;;;;;;2.45;100.00;100710.95;109766;1272;22386;-53
2024/02/01 08:24:41;;;;;;;51.40;29.20;;;;;;;2.52;100.00;100712.44;109815;1270;23079;-48
2024/02/01 08:36:00;;;;;;;42.30;26.30;;;;;;;2.53;100.00;100699.23;110040;1270;22465;-47
2024/02/01 08:38:59;;;;;;;47.20;28.00;;;;;;;2.53;100.00;100709.73;109837;1277;23190;-54
2024/02/01 08:41:52;;;;;;;55.20;28.80;;;;;;;2.59;100.00;100705.80;109761;1272;23130;-52
2024/02/01 08:44:20;;;;;;;46.20;28.00;;;;;;;2.62;100.00;100709.75;109941;1270;22287;-52
2024/02/01 08:46:51;;;;;;;43.10;26.40;;;;;;;2.69;100.00;100704.12;109979;1272;22379;-53
2024/02/01 08:49:23;;;;;;;43.60;27.60;;;;;;;2.76;100.00;100704.25;109786;1275;22332;-53
2024/02/01 08:52:06;;;;;;;41.40;26.10;;;;;;;2.80;100.00;100698.88;109744;1270;23087;-46
2024/02/01 08:54:36;;;;;;;38.80;24.70;;;;;;;2.80;100.00;100689.41;109811;1270;22841;-53
2024/02/01 08:57:13;;;;;;;;;;;;;;;2.81;100.00;100691.33;109756;1272;23185;-53
2024/02/01 08:59:41;;;;;;;42.70;25.90;;;;;;;2.82;100.00;100689.11;109849;1270;22936;-47
2024/02/01 09:02:15;;;;;;;46.60;27.90;;;;;;;2.85;100.00;100687.19;109889;1264;23130;-52
2024/02/01 09:04:47;;;;;;;48.90;28.50;;;;;;;2.93;100.00;100682.64;109862;1270;22390;-52
2024/02/01 09:07:19;;;;;;;41.90;26.30;;;;;;;2.99;100.00;100671.83;109928;1270;22354;-49
2024/02/01 09:09:56;;;;;;;46.90;26.90;;;;;;;3.04;100.00;100671.00;109823;1272;24219;-47
2024/02/01 09:12:34;;;;;;;47.00;26.70;;;;;;;3.07;100.00;100667.31;109622;1265;22825;-47
2024/02/01 09:15:03;;;;;;;42.40;24.60;;;;;;;3.11;100.00;100658.66;109828;1270;22435;-47
2024/02/01 09:17:32;;;;;;;42.60;25.50;;;;;;;3.17;100.00;100655.09;109725;1272;22352;-47
2024/02/01 09:20:17;;;;;;;45.50;24.70;;;;;;;3.23;100.00;100650.45;109825;1272;22414;-48
2024/02/01 09:23:12;;;;;;;49.70;26.60;;;;;;;3.31;100.00;100644.17;109876;1270;22318;-47
2024/02/01 09:25:50;;;;;;;37.40;23.90;;;;;;;3.38;100.00;100639.42;109608;1270;22418;-55
2024/02/01 09:28:18;;;;;;;40.20;24.10;;;;;;;3.43;100.00;100630.48;109691;1272;22370;-54
2024/02/01 10:07:21;;;;;;;51.00;27.70;;;;;;;3.55;100.00;100569.13;109784;1275;22463;-47
2024/02/01 10:09:51;;;;;;;45.50;26.60;;;;;;;3.55;100.00;100565.85;109394;1278;22671;-48
2024/02/01 10:12:25;;;;;;;42.40;25.40;;;;;;;3.57;100.00;100561.41;109385;1276;22807;-55
2024/02/01 10:14:53;;;;;;;49.80;26.30;;;;;;;3.58;100.00;100558.69;109502;1278;22784;-49
2024/02/01 10:17:21;;;;;;;41.90;24.70;;;;;;;3.60;100.00;100555.83;109544;1280;22350;-47
2024/02/01 10:19:49;;;;;;;44.60;25.10;;;;;;;3.63;100.00;100554.71;109587;1277;22550;-47
2024/02/01 10:22:18;;;;;;;46.60;28.90;;;;;;;3.65;100.00;100550.31;109568;1283;23083;-53
2024/02/01 10:24:51;;;;;;;39.40;23.90;;;;;;;3.70;100.00;100543.88;109633;1276;22902;-55
2024/02/01 10:27:21;;;;;;;35.20;23.70;;;;;;;3.74;100.00;100534.02;109405;1279;23161;-46
2024/02/01 10:29:51;;;;;;;41.40;25.20;;;;;;;3.77;100.00;100529.27;109477;1276;22249;-48
2024/02/01 10:32:25;;;;;;;42.40;25.20;;;;;;;3.77;100.00;100525.30;109374;1276;23060;-48
2024/02/01 10:35:01;;;;;;;44.90;25.40;;;;;;;3.76;100.00;100524.26;109462;1282;23275;-49
2024/02/01 10:44:04;;;;;;;36.00;22.50;;;;;;;3.88;100.00;100515.63;106206;1308;546153;-47
2024/02/01 10:46:47;;;;;;;44.30;28.10;;;;;;;3.93;100.00;100508.38;107792;1289;22434;-54
2024/02/01 10:49:27;;;;;;;42.80;26.20;;;;;;;3.98;100.00;100506.80;108460;1283;22718;-52
2024/02/01 10:52:11;;;;;;;31.60;20.50;;;;;;;4.05;100.00;100505.79;107954;1285;22533;-55
2024/02/01 10:54:42;;;;;;;34.30;23.10;;;;;;;4.08;100.00;100503.47;107351;1289;23737;-53
2024/02/01 10:57:11;;;;;;;42.10;26.40;;;;;;;4.08;100.00;100501.05;108381;1275;161189;-48
2024/02/01 10:59:39;;;;;;;42.90;26.50;;;;;;;4.07;100.00;100496.88;109061;1282;22840;-54
2024/02/01 11:10:05;;;;;;;40.00;25.40;;;;;;;4.18;100.00;100489.96;109276;1287;22404;-48
2024/02/01 11:16:48;;;;;;;48.00;27.00;;;;;;;4.30;100.00;100475.42;108953;1284;22999;-54
2024/02/01 11:19:42;;;;;;;38.20;23.10;;;;;;;4.30;100.00;100466.80;109058;1281;22390;-48
2024/02/01 11:22:11;;;;;;;43.50;27.40;;;;;;;4.30;100.00;100463.52;109013;1287;22491;-53
2024/02/01 11:24:42;;;;;;;39.90;25.10;;;;;;;4.22;100.00;100462.43;109105;1284;23145;-52
2024/02/01 11:27:18;;;;;;;42.80;25.20;;;;;;;4.12;100.00;100460.10;109219;1287;23278;-47
2024/02/01 11:29:51;;;;;;;43.40;27.60;;;;;;;4.08;100.00;100453.73;109085;1269;23153;-46
2024/02/01 11:32:31;;;;;;;42.50;26.60;;;;;;;4.06;100.00;100455.09;109386;1285;22414;-47
2024/02/01 11:34:59;;;;;;;44.10;26.30;;;;;;;4.11;100.00;100449.33;108970;1280;23587;-48
2024/02/01 11:37:27;;;;;;;40.40;26.20;;;;;;;4.15;100.00;100445.30;110006;1273;22545;-47
2024/02/01 11:39:56;;;;;;;41.60;26.80;;;;;;;4.15;100.00;100439.78;110198;1270;23124;-53
2024/02/01 11:42:24;;;;;;;42.50;25.40;;;;;;;4.17;100.00;100441.58;110070;1275;22329;-47
2024/02/01 11:45:00;;;;;;;41.30;24.20;;;;;;;4.20;100.00;100437.86;110009;1270;22445;-47
2024/02/01 11:47:34;;;;;;;40.70;24.70;;;;;;;4.25;100.00;100434.91;110088;1274;22909;-47
2024/02/01 11:50:02;;;;;;;40.30;25.50;;;;;;;4.31;100.00;100427.45;110025;1275;24450;-53
2024/02/01 11:52:47;;;;;;;37.40;24.70;;;;;;;4.35;100.00;100418.77;110087;1275;22376;-47
2024/02/01 11:55:15;;;;;;;41.10;24.20;;;;;;;4.38;100.00;100407.62;110069;1269;23161;-47
2024/02/01 11:57:47;;;;;;;41.20;24.10;;;;;;;4.36;100.00;100402.19;110069;1270;22406;-51
2024/02/01 12:00:20;;;;;;;35.20;22.50;;;;;;;4.34;100.00;100394.36;109934;1270;22609;-46
2024/02/01 12:03:08;;;;;;;37.90;22.40;;;;;;;4.32;100.00;100388.62;109934;1270;22421;-53
2024/02/01 12:05:36;;;;;;;39.10;24.50;;;;;;;4.30;100.00;100384.10;110111;1269;22759;-52
2024/02/01 12:08:06;;;;;;;41.30;25.50;;;;;;;4.31;100.00;100380.84;109990;1275;22377;-47
2024/02/01 12:10:35;;;;;;;40.30;24.60;;;;;;;4.34;100.00;100378.14;109912;1274;22928;-49
2024/02/01 12:13:06;;;;;;;39.20;24.20;;;;;;;4.39;100.00;100382.60;109961;1268;22400;-52
2024/02/01 12:15:36;;;;;;;39.30;23.70;;;;;;;4.44;100.00;100378.92;109518;1273;22313;-49
2024/02/01 12:18:08;;;;;;;41.40;25.50;;;;;;;4.45;100.00;100371.52;108808;1275;23210;-56
2024/02/01 12:20:42;;;;;;;39.20;24.70;;;;;;;4.43;100.00;100370.45;109230;1271;22213;-54
2024/02/01 12:23:23;;;;;;;40.90;25.20;;;;;;;4.40;100.00;100363.64;109745;1275;23336;-53
2024/02/01 12:26:39;;;;;;;37.00;23.20;;;;;;;4.40;100.00;100362.58;109884;1271;22924;-56
2024/02/01 12:29:39;;;;;;;37.30;24.60;;;;;;;4.39;100.00;100359.80;110033;1272;22517;-54
2024/02/01 12:32:12;;;;;;;40.90;25.30;;;;;;;4.41;100.00;100357.60;109633;1271;23708;-47
2024/02/01 12:35:08;;;;;;;39.40;23.20;;;;;;;4.45;100.00;100353.39;109220;1275;22546;-48
2024/02/01 12:47:08;;;;;;;44.30;25.50;;;;;;;4.30;100.00;100332.96;110226;1276;22248;-55
2024/02/01 13:02:19;;;;;;;44.50;24.30;;;;;;;3.87;100.00;100308.16;110145;1275;22460;-55
2024/02/01 13:05:44;;;;;;;44.70;26.60;;;;;;;3.82;100.00;100300.13;110135;1275;22260;-57
2024/02/01 13:08:39;;;;;;;47.10;27.10;;;;;;;3.78;100.00;100294.83;109865;1272;22870;-49
2024/02/01 13:11:07;;;;;;;45.20;25.70;;;;;;;3.78;100.00;100289.48;110211;1271;22842;-49
2024/02/01 13:13:55;;;;;;;53.10;28.10;;;;;;;3.80;100.00;100284.00;110086;1273;23371;-47
2024/02/01 13:16:29;;;;;;;41.80;24.60;;;;;;;3.81;100.00;100280.22;110004;1276;22201;-48
2024/02/01 13:18:58;;;;;;;46.20;25.70;;;;;;;3.81;100.00;100270.57;109933;1269;23303;-54
2024/02/01 13:21:26;;;;;;;35.90;23.80;;;;;;;3.83;100.00;100265.11;109810;1276;23130;-47
2024/02/01 13:23:53;;;;;;;41.50;24.50;;;;;;;3.85;100.00;100261.88;109906;1275;23154;-56
2024/02/01 13:26:21;;;;;;;38.70;22.80;;;;;;;3.86;100.00;100258.63;110021;1275;23065;-47
2024/02/01 13:28:49;;;;;;;35.90;22.20;;;;;;;3.87;100.00;100254.69;109989;1275;22340;-47
2024/02/01 13:31:17;;;;;;;43.40;26.70;;;;;;;3.88;100.00;100252.48;109386;1276;22529;-58
2024/02/01 13:33:45;;;;;;;39.90;24.50;;;;;;;3.90;100.00;100250.13;109784;1276;22996;-59
2024/02/01 13:36:12;;;;;;;44.00;25.10;;;;;;;3.94;100.00;100248.31;110056;1276;22498;-49
2024/02/01 13:38:40;;;;;;;39.90;23.90;;;;;;;3.97;100.00;100244.77;110098;1276;22392;-56
2024/02/01 13:41:08;;;;;;;43.00;25.90;;;;;;;4.00;100.00;100236.91;109965;1276;22299;-48
2024/02/01 13:43:36;;;;;;;40.30;24.10;;;;;;;4.04;100.00;100234.92;109977;1276;22397;-57
2024/02/01 13:46:04;;;;;;;39.60;23.60;;;;;;;4.07;100.00;100228.28;110084;1276;22499;-51
2024/02/01 13:48:31;;;;;;;44.90;23.70;;;;;;;4.10;100.00;100224.05;110033;1276;23440;-46
2024/02/01 13:51:03;;;;;;;38.50;24.00;;;;;;;4.13;100.00;100229.12;109987;1276;22838;-52
2024/02/01 13:53:31;;;;;;;34.20;21.40;;;;;;;4.17;100.00;100235.61;110079;1276;22455;-46
2024/02/01 13:55:59;;;;;;;53.80;27.10;;;;;;;4.24;100.00;100244.75;110049;1276;22323;-47
2024/02/01 13:58:26;;;;;;;41.20;24.10;;;;;;;4.31;100.00;100252.52;110076;1276;22444;-47
2024/02/01 14:00:54;;;;;;;39.60;24.00;;;;;;;4.38;100.00;100253.39;109683;1276;23029;-47
2024/02/01 14:03:26;;;;;;;40.80;24.80;;;;;;;4.43;100.00;100247.98;110227;1276;23033;-54
2024/02/01 14:05:54;;;;;;;39.90;24.90;;;;;;;4.48;100.00;100250.17;109973;1276;22235;-46
2024/02/01 14:08:22;;;;;;;38.20;23.20;;;;;;;4.54;100.00;100248.77;109047;1276;23209;-47
2024/02/01 14:10:52;;;;;;;40.30;25.90;;;;;;;4.58;100.00;100250.77;110239;1276;22497;-47
2024/02/01 14:13:21;;;;;;;44.50;25.40;;;;;;;4.60;100.00;100257.02;110253;1276;22916;-54
2024/02/01 14:15:49;;;;;;;38.90;23.10;;;;;;;4.60;100.00;100258.05;108688;1276;23226;-47
2024/02/01 14:18:16;;;;;;;47.50;26.70;;;;;;;4.57;100.00;100253.14;107833;1276;22451;-54
2024/02/01 14:20:44;;;;;;;42.80;24.40;;;;;;;4.53;100.00;100250.48;110036;1276;22461;-53
2024/02/01 14:23:12;;;;;;;40.30;23.50;;;;;;;4.52;100.00;100248.39;110208;1267;22364;-47
2024/02/01 14:25:39;;;;;;;42.10;23.80;;;;;;;4.52;100.00;100245.63;110133;1271;23138;-53
2024/02/01 14:28:07;;;;;;;38.40;22.60;;;;;;;4.51;100.00;100246.45;110151;1270;22999;-47
2024/02/01 14:30:35;;;;;;;39.00;23.20;;;;;;;4.49;100.00;100250.55;110008;1276;22220;-47
2024/02/01 14:33:04;;;;;;;43.60;23.50;;;;;;;4.46;100.00;100247.89;110010;1276;22837;-47
2024/02/01 14:35:33;;;;;;;41.20;24.80;;;;;;;4.43;100.00;100246.59;110140;1276;22271;-47
2024/02/01 14:38:00;;;;;;;44.60;24.50;;;;;;;4.40;100.00;100246.52;110158;1276;22305;-46
2024/02/01 14:40:28;;;;;;;37.30;22.70;;;;;;;4.41;100.00;100243.61;110052;1276;24248;-46
2024/02/01 14:42:58;;;;;;;40.50;24.90;;;;;;;4.43;100.00;100242.64;109968;1276;23314;-54
2024/02/01 14:45:25;;;;;;;44.10;22.40;;;;;;;4.44;100.00;100244.20;110066;1276;22545;-53
2024/02/01 14:47:53;;;;;;;44.30;27.10;;;;;;;4.46;100.00;100249.44;110163;1276;22455;-54
2024/02/01 14:50:21;;;;;;;38.10;23.50;;;;;;;4.45;100.00;100248.55;110192;1276;22664;-54
2024/02/01 14:52:49;;;;;;;58.70;29.80;;;;;;;4.44;100.00;100245.76;109187;1276;23366;-54
2024/02/01 14:55:16;;;;;;;58.00;30.60;;;;;;;4.42;100.00;100242.10;108205;1276;22351;-55
2024/02/01 14:57:45;;;;;;;49.70;28.70;;;;;;;4.41;100.00;100235.35;108024;1276;25342;-54
2024/02/01 15:00:15;;;;;;;50.10;26.50;;;;;;;4.45;100.00;100231.98;107168;1276;22543;-55
2024/02/01 15:02:42;;;;;;;49.60;28.10;;;;;;;4.50;100.00;100226.38;109488;1275;22263;-54
2024/02/01 15:05:13;;;;;;;105.70;47.40;;;;;;;4.53;100.00;100226.31;110312;1276;22339;-55
2024/02/01 15:07:42;;;;;;;61.70;33.70;;;;;;;4.53;100.00;100228.89;107551;1276;22526;-55
2024/02/01 15:10:16;;;;;;;52.10;26.00;;;;;;;4.48;100.00;100227.22;108045;1275;22796;-55
2024/02/01 15:12:46;;;;;;;49.30;26.10;;;;;;;4.47;100.00;100221.48;107641;1275;22529;-54
2024/02/01 15:15:20;;;;;;;51.10;25.80;;;;;;;4.49;100.00;100221.36;107410;1275;22554;-55
2024/02/01 15:17:49;;;;;;;56.20;27.00;;;;;;;4.54;100.00;100215.44;107537;1276;22534;-55
2024/02/01 15:20:18;;;;;;;53.60;26.60;;;;;;;4.58;100.00;100216.03;107203;1255;25431;-48
2024/02/01 15:22:46;;;;;;;51.10;27.00;;;;;;;4.61;100.00;100213.67;106788;1276;22520;-54
